createdAt,value
2018-07-11T00:00:50.078Z,12.5
2018-07-11T00:01:50.792Z,12.5
2018-07-11T00:02:51.480Z,12.5
2018-07-11T00:03:52.410Z,12.5
2018-07-11T00:04:53.080Z,12.5
2018-07-11T00:05:53.743Z,12.5
2018-07-11T00:06:54.955Z,12.6
2018-07-11T00:07:55.723Z,12.5
2018-07-11T00:08:56.398Z,12.6
2018-07-11T00:09:57.067Z,12.5
2018-07-11T00:10:57.736Z,12.6
2018-07-11T00:11:58.406Z,12.6
2018-07-11T00:12:59.085Z,12.7
2018-07-11T00:13:59.763Z,12.7
2018-07-11T00:15:00.708Z,12.8
2018-07-11T00:16:01.361Z,12.8
2018-07-11T00:17:02.039Z,12.9
2018-07-11T00:18:02.723Z,12.9
2018-07-11T00:19:03.397Z,13.0
2018-07-11T00:20:04.073Z,13.0
2018-07-11T00:21:04.753Z,13.0
2018-07-11T00:22:05.437Z,12.9
2018-07-11T00:23:06.344Z,12.9
2018-07-11T00:24:07.017Z,12.9
2018-07-11T00:25:07.693Z,13.0
2018-07-11T00:26:08.366Z,12.9
2018-07-11T00:27:09.042Z,12.9
2018-07-11T00:28:09.712Z,13.0
2018-07-11T00:29:10.381Z,12.9
2018-07-11T00:30:11.057Z,13.0
2018-07-11T00:31:11.725Z,13.0
2018-07-11T00:32:12.450Z,12.9
2018-07-11T00:33:13.124Z,12.9
2018-07-11T00:34:13.783Z,13.0
2018-07-11T00:35:14.703Z,13.1
2018-07-11T00:36:15.382Z,13.1
2018-07-11T00:37:16.395Z,13.1
2018-07-11T00:38:17.025Z,13.1
2018-07-11T00:39:17.691Z,13.2
2018-07-11T00:40:18.366Z,13.1
2018-07-11T00:41:19.025Z,13.0
2018-07-11T00:42:19.712Z,13.1
2018-07-11T00:43:20.376Z,13.2
2018-07-11T00:44:21.290Z,13.2
2018-07-11T00:45:22.328Z,13.1
2018-07-11T00:46:23.011Z,13.2
2018-07-11T00:47:23.950Z,13.0
2018-07-11T00:48:24.875Z,13.2
2018-07-11T00:49:25.556Z,13.2
2018-07-11T00:50:26.219Z,13.2
2018-07-11T00:51:26.907Z,13.2
2018-07-11T00:52:27.831Z,13.2
2018-07-11T00:53:28.767Z,13.2
2018-07-11T00:54:29.459Z,13.2
2018-07-11T00:55:30.129Z,13.2
2018-07-11T00:56:30.805Z,13.2
2018-07-11T00:57:31.487Z,13.2
2018-07-11T00:58:32.161Z,13.2
2018-07-11T00:59:33.174Z,13.2
2018-07-11T01:00:33.847Z,13.2
2018-07-11T01:01:34.523Z,13.2
2018-07-11T01:02:35.190Z,13.2
2018-07-11T01:03:35.856Z,13.2
2018-07-11T01:04:37.141Z,13.1
2018-07-11T01:05:37.801Z,13.1
2018-07-11T01:06:38.725Z,13.1
2018-07-11T01:07:39.401Z,13.1
2018-07-11T01:08:40.072Z,13.1
2018-07-11T01:09:40.756Z,13.1
2018-07-11T01:10:41.416Z,13.1
2018-07-11T01:11:42.103Z,13.0
2018-07-11T01:12:42.813Z,12.9
2018-07-11T01:13:43.453Z,12.9
2018-07-11T01:14:44.132Z,12.8
2018-07-11T01:15:44.815Z,12.8
2018-07-11T01:16:45.741Z,12.8
2018-07-11T01:17:46.413Z,12.7
2018-07-11T01:18:47.083Z,12.7
2018-07-11T01:19:47.756Z,12.6
2018-07-11T01:20:48.432Z,12.6
2018-07-11T01:21:49.110Z,12.5
2018-07-11T01:22:49.787Z,12.5
2018-07-11T01:23:50.459Z,12.5
2018-07-11T01:24:51.430Z,12.4
2018-07-11T01:25:52.100Z,12.4
2018-07-11T01:26:52.774Z,12.4
2018-07-11T01:27:53.462Z,12.4
2018-07-11T01:28:54.129Z,12.4
2018-07-11T01:29:54.856Z,12.5
2018-07-11T01:30:55.529Z,12.5
2018-07-11T01:31:56.202Z,12.5
2018-07-11T01:32:56.865Z,12.5
2018-07-11T01:33:57.536Z,12.6
2018-07-11T01:34:58.205Z,12.5
2018-07-11T01:35:58.895Z,12.5
2018-07-11T01:36:59.572Z,12.5
2018-07-11T01:38:00.239Z,12.5
2018-07-11T01:39:00.919Z,12.5
2018-07-11T01:40:01.588Z,12.5
2018-07-11T01:41:02.513Z,12.6
2018-07-11T01:42:03.196Z,12.4
2018-07-11T01:43:03.870Z,12.5
2018-07-11T01:44:04.795Z,12.5
2018-07-11T01:45:05.476Z,12.5
2018-07-11T01:46:06.154Z,12.4
2018-07-11T01:47:06.810Z,12.4
2018-07-11T01:48:07.495Z,12.4
2018-07-11T01:49:08.163Z,12.4
2018-07-11T01:50:08.825Z,12.4
2018-07-11T01:51:09.515Z,12.3
2018-07-11T01:52:10.187Z,12.3
2018-07-11T01:53:10.858Z,12.3
2018-07-11T01:54:11.538Z,12.2
2018-07-11T01:55:12.208Z,12.1
2018-07-11T01:56:12.891Z,12.2
2018-07-11T01:57:13.563Z,12.1
2018-07-11T01:58:14.231Z,12.1
2018-07-11T01:59:15.255Z,12.0
2018-07-11T02:00:15.919Z,12.0
2018-07-11T02:01:16.606Z,12.0
2018-07-11T02:02:17.276Z,12.0
2018-07-11T02:03:17.943Z,11.9
2018-07-11T02:04:18.681Z,11.9
2018-07-11T02:05:19.361Z,11.8
2018-07-11T02:06:20.050Z,11.8
2018-07-11T02:07:20.728Z,11.7
2018-07-11T02:08:21.413Z,11.7
2018-07-11T02:09:22.098Z,11.8
2018-07-11T02:10:22.776Z,11.7
2018-07-11T02:11:23.493Z,11.7
2018-07-11T02:12:24.175Z,11.7
2018-07-11T02:13:24.853Z,11.6
2018-07-11T02:14:25.526Z,11.7
2018-07-11T02:15:26.199Z,11.6
2018-07-11T02:16:26.864Z,11.6
2018-07-11T02:17:27.539Z,11.6
2018-07-11T02:18:28.208Z,11.6
2018-07-11T02:19:29.139Z,11.5
2018-07-11T02:20:29.807Z,11.4
2018-07-11T02:21:30.538Z,11.5
2018-07-11T02:22:31.206Z,11.4
2018-07-11T02:23:31.872Z,11.4
2018-07-11T02:24:32.545Z,11.4
2018-07-11T02:25:33.241Z,11.5
2018-07-11T02:26:33.903Z,11.4
2018-07-11T02:27:34.585Z,11.4
2018-07-11T02:28:35.263Z,11.4
2018-07-11T02:29:35.938Z,11.3
2018-07-11T02:30:36.868Z,11.3
2018-07-11T02:31:37.597Z,11.3
2018-07-11T02:32:38.271Z,11.2
2018-07-11T02:33:39.185Z,11.3
2018-07-11T02:34:39.858Z,11.2
2018-07-11T02:35:40.541Z,11.3
2018-07-11T02:36:41.561Z,11.3
2018-07-11T02:37:42.240Z,11.3
2018-07-11T02:38:42.917Z,11.4
2018-07-11T02:39:43.588Z,11.3
2018-07-11T02:40:44.262Z,11.2
2018-07-11T02:41:44.939Z,11.2
2018-07-11T02:42:45.613Z,11.3
2018-07-11T02:43:46.294Z,11.3
2018-07-11T02:44:47.210Z,11.4
2018-07-11T02:45:47.887Z,11.3
2018-07-11T02:46:48.556Z,11.3
2018-07-11T02:47:49.232Z,11.4
2018-07-11T02:48:49.908Z,11.3
2018-07-11T02:49:50.591Z,11.3
2018-07-11T02:50:51.257Z,11.4
2018-07-11T02:51:51.931Z,11.4
2018-07-11T02:52:52.605Z,11.3
2018-07-11T02:53:53.329Z,11.3
2018-07-11T02:54:54.010Z,11.4
2018-07-11T02:55:54.681Z,11.4
2018-07-11T02:56:55.355Z,11.4
2018-07-11T02:57:56.276Z,11.4
2018-07-11T02:58:56.954Z,11.5
2018-07-11T02:59:57.631Z,11.4
2018-07-11T03:00:58.313Z,11.5
2018-07-11T03:01:58.992Z,11.3
2018-07-11T03:02:59.666Z,11.4
2018-07-11T03:04:00.343Z,11.4
2018-07-11T03:05:01.015Z,11.4
2018-07-11T03:06:01.688Z,11.5
2018-07-11T03:07:02.362Z,11.5
2018-07-11T03:08:03.045Z,11.4
2018-07-11T03:09:03.973Z,11.4
2018-07-11T03:10:04.653Z,11.4
2018-07-11T03:11:05.326Z,11.3
2018-07-11T03:12:06.012Z,11.4
2018-07-11T03:13:06.689Z,11.4
2018-07-11T03:14:07.364Z,11.4
2018-07-11T03:15:08.297Z,11.5
2018-07-11T03:16:09.228Z,11.5
2018-07-11T03:17:09.906Z,11.4
2018-07-11T03:18:10.905Z,11.5
2018-07-11T03:19:11.557Z,11.5
2018-07-11T03:20:12.237Z,11.5
2018-07-11T03:21:12.921Z,11.5
2018-07-11T03:22:13.589Z,11.5
2018-07-11T03:23:14.520Z,11.6
2018-07-11T03:24:15.195Z,11.5
2018-07-11T03:25:15.874Z,11.6
2018-07-11T03:26:16.556Z,11.6
2018-07-11T03:27:17.269Z,11.6
2018-07-11T03:28:17.951Z,11.6
2018-07-11T03:29:18.625Z,11.6
2018-07-11T03:30:19.547Z,11.6
2018-07-11T03:31:20.215Z,11.6
2018-07-11T03:32:20.882Z,11.6
2018-07-11T03:33:21.575Z,11.6
2018-07-11T03:34:22.249Z,11.7
2018-07-11T03:35:22.946Z,11.7
2018-07-11T03:36:23.612Z,11.7
2018-07-11T03:37:24.342Z,11.7
2018-07-11T03:38:25.020Z,11.6
2018-07-11T03:39:25.703Z,11.7
2018-07-11T03:40:26.384Z,11.8
2018-07-11T03:41:27.067Z,11.7
2018-07-11T03:42:28.047Z,11.7
2018-07-11T03:43:28.978Z,11.7
2018-07-11T03:44:29.665Z,11.8
2018-07-11T03:45:30.333Z,11.7
2018-07-11T03:46:31.252Z,11.7
2018-07-11T03:47:31.937Z,11.8
2018-07-11T03:48:32.603Z,11.7
2018-07-11T03:49:33.279Z,11.8
2018-07-11T03:50:33.956Z,11.8
2018-07-11T03:51:34.635Z,11.8
2018-07-11T03:52:35.312Z,11.9
2018-07-11T03:53:36.234Z,11.8
2018-07-11T03:54:36.910Z,11.8
2018-07-11T03:55:37.595Z,11.8
2018-07-11T03:56:38.270Z,11.8
2018-07-11T03:57:38.959Z,11.8
2018-07-11T03:58:39.889Z,11.9
2018-07-11T03:59:40.560Z,11.9
2018-07-11T04:00:41.240Z,11.9
2018-07-11T04:01:42.177Z,12.0
2018-07-11T04:02:42.854Z,12.0
2018-07-11T04:03:43.538Z,12.0
2018-07-11T04:04:44.243Z,12.0
2018-07-11T04:05:44.892Z,12.0
2018-07-11T04:06:45.589Z,12.0
2018-07-11T04:07:46.255Z,11.9
2018-07-11T04:08:46.934Z,12.0
2018-07-11T04:09:47.608Z,12.0
2018-07-11T04:10:48.633Z,12.0
2018-07-11T04:11:49.313Z,11.9
2018-07-11T04:12:49.995Z,11.9
2018-07-11T04:13:50.669Z,12.0
2018-07-11T04:14:51.353Z,12.1
2018-07-11T04:15:52.084Z,12.1
2018-07-11T04:16:52.753Z,12.1
2018-07-11T04:17:53.427Z,12.2
2018-07-11T04:18:54.103Z,12.2
2018-07-11T04:19:54.789Z,12.1
2018-07-11T04:20:55.816Z,12.2
2018-07-11T04:21:56.497Z,12.3
2018-07-11T04:22:57.182Z,12.3
2018-07-11T04:23:57.848Z,12.3
2018-07-11T04:24:58.526Z,12.3
2018-07-11T04:25:59.203Z,12.4
2018-07-11T04:26:59.889Z,12.4
2018-07-11T04:28:00.617Z,12.5
2018-07-11T04:29:01.546Z,12.4
2018-07-11T04:30:02.228Z,12.4
2018-07-11T04:31:02.903Z,12.5
2018-07-11T04:32:03.593Z,12.5
2018-07-11T04:33:04.321Z,12.6
2018-07-11T04:34:05.004Z,12.6
2018-07-11T04:35:05.683Z,12.6
2018-07-11T04:36:06.366Z,12.7
2018-07-11T04:37:07.046Z,12.7
2018-07-11T04:38:07.776Z,12.8
2018-07-11T04:39:08.458Z,12.8
2018-07-11T04:40:09.157Z,12.8
2018-07-11T04:41:09.836Z,12.8
2018-07-11T04:42:10.506Z,12.9
2018-07-11T04:43:11.188Z,12.9
2018-07-11T04:44:11.861Z,12.9
2018-07-11T04:45:12.538Z,13.0
2018-07-11T04:46:13.227Z,13.0
2018-07-11T04:47:13.913Z,13.0
2018-07-11T04:48:14.597Z,13.0
2018-07-11T04:49:15.282Z,13.1
2018-07-11T04:50:15.956Z,13.1
2018-07-11T04:51:16.635Z,13.1
2018-07-11T04:52:17.324Z,13.2
2018-07-11T04:53:18.008Z,13.2
2018-07-11T04:54:18.737Z,13.2
2018-07-11T04:55:19.443Z,13.2
2018-07-11T04:56:20.124Z,13.2
2018-07-11T04:57:20.796Z,13.3
2018-07-11T04:58:21.479Z,13.4
2018-07-11T04:59:22.154Z,13.4
2018-07-11T05:00:22.843Z,13.4
2018-07-11T05:01:23.519Z,13.4
2018-07-11T05:02:24.199Z,13.5
2018-07-11T05:03:24.892Z,13.5
2018-07-11T05:04:25.581Z,13.5
2018-07-11T05:05:26.551Z,13.6
2018-07-11T05:06:27.232Z,13.4
2018-07-11T05:07:27.914Z,13.5
2018-07-11T05:08:28.599Z,13.6
2018-07-11T05:09:29.277Z,13.5
2018-07-11T05:10:29.972Z,13.6
2018-07-11T05:11:30.650Z,13.6
2018-07-11T05:12:31.321Z,13.6
2018-07-11T05:13:32.004Z,13.6
2018-07-11T05:14:32.696Z,13.6
2018-07-11T05:15:33.430Z,13.7
2018-07-11T05:16:34.405Z,13.6
2018-07-11T05:17:35.147Z,13.6
2018-07-11T05:18:35.884Z,13.6
2018-07-11T05:19:36.516Z,13.6
2018-07-11T05:20:37.195Z,13.6
2018-07-11T05:21:37.886Z,13.6
2018-07-11T05:22:38.610Z,13.7
2018-07-11T05:23:39.306Z,13.7
2018-07-11T05:24:39.985Z,13.7
2018-07-11T05:25:40.661Z,13.7
2018-07-11T05:26:41.385Z,13.7
2018-07-11T05:27:42.391Z,13.7
2018-07-11T05:28:43.103Z,13.8
2018-07-11T05:29:43.835Z,13.6
2018-07-11T05:30:44.577Z,13.7
2018-07-11T05:31:45.312Z,13.7
2018-07-11T05:32:46.043Z,13.7
2018-07-11T05:33:46.730Z,13.8
2018-07-11T05:34:47.404Z,13.8
2018-07-11T05:35:48.088Z,13.8
2018-07-11T05:36:48.771Z,13.7
2018-07-11T05:37:49.500Z,13.8
2018-07-11T05:38:50.196Z,13.8
2018-07-11T05:39:50.871Z,13.8
2018-07-11T05:40:51.558Z,13.8
2018-07-11T05:41:52.490Z,13.8
2018-07-11T05:42:53.523Z,13.8
2018-07-11T05:43:54.197Z,13.9
2018-07-11T05:44:54.887Z,13.9
2018-07-11T05:45:55.569Z,14.1
2018-07-11T05:46:56.254Z,13.9
2018-07-11T05:47:57.287Z,13.9
2018-07-11T05:48:57.989Z,13.9
2018-07-11T05:49:58.662Z,14.0
2018-07-11T05:50:59.344Z,14.0
2018-07-11T05:52:00.038Z,13.9
2018-07-11T05:53:00.705Z,14.0
2018-07-11T05:54:01.385Z,14.0
2018-07-11T05:55:02.078Z,14.0
2018-07-11T05:56:03.123Z,14.0
2018-07-11T05:57:04.050Z,14.0
2018-07-11T05:58:04.727Z,14.1
2018-07-11T05:59:05.419Z,14.1
2018-07-11T06:00:06.109Z,14.1
2018-07-11T06:01:06.840Z,14.0
2018-07-11T06:02:07.532Z,14.0
2018-07-11T06:03:08.211Z,14.0
2018-07-11T06:04:08.891Z,14.1
2018-07-11T06:05:09.579Z,14.1
2018-07-11T06:06:10.614Z,14.0
2018-07-11T06:07:11.287Z,14.1
2018-07-11T06:08:11.971Z,14.1
2018-07-11T06:09:12.649Z,14.1
2018-07-11T06:10:13.343Z,14.2
2018-07-11T06:11:14.065Z,14.2
2018-07-11T06:12:14.736Z,14.3
2018-07-11T06:13:15.480Z,14.3
2018-07-11T06:14:16.205Z,14.4
2018-07-11T06:15:16.931Z,14.4
2018-07-11T06:16:17.672Z,14.4
2018-07-11T06:17:18.398Z,14.4
2018-07-11T06:18:19.132Z,14.4
2018-07-11T06:19:19.861Z,14.5
2018-07-11T06:20:20.650Z,14.5
2018-07-11T06:21:21.369Z,14.5
2018-07-11T06:22:22.341Z,14.5
2018-07-11T06:23:23.126Z,14.5
2018-07-11T06:24:23.813Z,14.5
2018-07-11T06:25:24.792Z,14.4
2018-07-11T06:26:25.769Z,14.5
2018-07-11T06:27:26.498Z,14.4
2018-07-11T06:28:27.221Z,14.6
2018-07-11T06:29:28.003Z,14.6
2018-07-11T06:30:28.731Z,14.6
2018-07-11T06:31:29.455Z,14.5
2018-07-11T06:32:30.191Z,14.6
2018-07-11T06:33:31.002Z,14.5
2018-07-11T06:34:31.720Z,14.6
2018-07-11T06:35:32.454Z,14.5
2018-07-11T06:36:33.184Z,14.6
2018-07-11T06:37:33.913Z,14.7
2018-07-11T06:38:34.661Z,14.6
2018-07-11T06:39:35.395Z,14.7
2018-07-11T06:40:36.127Z,14.7
2018-07-11T06:41:36.865Z,14.7
2018-07-11T06:42:37.601Z,14.7
2018-07-11T06:43:38.330Z,14.6
2018-07-11T06:44:39.063Z,14.7
2018-07-11T06:45:39.783Z,14.6
2018-07-11T06:46:40.531Z,14.7
2018-07-11T06:47:41.252Z,14.7
2018-07-11T06:48:41.993Z,14.6
2018-07-11T06:49:42.763Z,14.7
2018-07-11T06:50:43.489Z,14.7
2018-07-11T06:51:44.219Z,14.6
2018-07-11T06:52:44.940Z,14.7
2018-07-11T06:53:45.673Z,14.7
2018-07-11T06:54:46.459Z,14.7
2018-07-11T06:55:47.133Z,14.8
2018-07-11T06:56:47.814Z,14.6
2018-07-11T06:57:48.737Z,14.7
2018-07-11T06:58:49.422Z,14.7
2018-07-11T06:59:50.099Z,14.7
2018-07-11T07:00:50.775Z,14.6
2018-07-11T07:01:51.497Z,14.6
2018-07-11T07:02:52.177Z,14.7
2018-07-11T07:03:52.858Z,14.7
2018-07-11T07:04:53.613Z,14.7
2018-07-11T07:05:54.298Z,14.7
2018-07-11T07:06:54.983Z,14.7
2018-07-11T07:07:55.667Z,14.7
2018-07-11T07:08:56.351Z,14.7
2018-07-11T07:09:57.042Z,14.7
2018-07-11T07:10:57.719Z,14.8
2018-07-11T07:11:58.456Z,14.8
2018-07-11T07:12:59.126Z,14.8
2018-07-11T07:13:59.814Z,14.8
2018-07-11T07:15:00.499Z,14.7
2018-07-11T07:16:01.181Z,14.7
2018-07-11T07:17:01.908Z,14.7
2018-07-11T07:18:02.853Z,14.7
2018-07-11T07:19:03.528Z,14.7
2018-07-11T07:20:04.452Z,14.6
2018-07-11T07:21:05.137Z,14.7
2018-07-11T07:22:05.912Z,14.7
2018-07-11T07:23:06.645Z,14.7
2018-07-11T07:24:07.402Z,14.7
2018-07-11T07:25:08.131Z,14.7
2018-07-11T07:26:08.868Z,14.9
2018-07-11T07:27:09.849Z,14.8
2018-07-11T07:28:10.585Z,14.9
2018-07-11T07:29:11.339Z,14.9
2018-07-11T07:30:12.046Z,14.9
2018-07-11T07:31:12.785Z,15.0
2018-07-11T07:32:13.505Z,15.0
2018-07-11T07:33:14.181Z,14.9
2018-07-11T07:34:14.958Z,15.1
2018-07-11T07:35:15.687Z,15.2
2018-07-11T07:36:16.411Z,15.1
2018-07-11T07:37:17.147Z,15.2
2018-07-11T07:38:17.886Z,15.1
2018-07-11T07:39:18.914Z,15.3
2018-07-11T07:40:19.892Z,15.1
2018-07-11T07:41:20.628Z,15.3
2018-07-11T07:42:21.358Z,15.3
2018-07-11T07:43:22.100Z,15.3
2018-07-11T07:44:23.189Z,15.2
2018-07-11T07:45:23.908Z,15.2
2018-07-11T07:46:24.638Z,15.3
2018-07-11T07:47:25.382Z,15.3
2018-07-11T07:48:26.118Z,15.3
2018-07-11T07:49:26.844Z,15.3
2018-07-11T07:50:27.573Z,15.3
2018-07-11T07:51:28.317Z,15.3
2018-07-11T07:52:29.052Z,15.3
2018-07-11T07:53:29.787Z,15.3
2018-07-11T07:54:30.508Z,15.2
2018-07-11T07:55:31.250Z,15.2
2018-07-11T07:56:31.979Z,15.1
2018-07-11T07:57:32.733Z,15.2
2018-07-11T07:58:33.728Z,15.1
2018-07-11T07:59:34.504Z,15.1
2018-07-11T08:00:35.361Z,15.2
2018-07-11T08:01:35.863Z,15.3
2018-07-11T08:02:36.547Z,15.2
2018-07-11T08:03:37.223Z,15.4
2018-07-11T08:04:37.902Z,15.3
2018-07-11T08:05:38.579Z,15.4
2018-07-11T08:06:39.258Z,15.4
2018-07-11T08:07:39.941Z,15.4
2018-07-11T08:08:40.876Z,15.4
2018-07-11T08:09:41.610Z,15.4
2018-07-11T08:10:42.297Z,15.4
2018-07-11T08:11:43.232Z,15.4
2018-07-11T08:12:43.988Z,15.5
2018-07-11T08:13:44.609Z,15.6
2018-07-11T08:14:45.332Z,15.5
2018-07-11T08:15:46.033Z,15.6
2018-07-11T08:16:46.702Z,15.6
2018-07-11T08:17:47.377Z,15.7
2018-07-11T08:18:48.058Z,15.7
2018-07-11T08:19:48.741Z,15.7
2018-07-11T08:20:49.424Z,15.8
2018-07-11T08:21:50.153Z,15.8
2018-07-11T08:22:50.834Z,15.8
2018-07-11T08:23:51.521Z,15.8
2018-07-11T08:24:52.205Z,15.8
2018-07-11T08:25:53.130Z,15.8
2018-07-11T08:26:53.865Z,15.8
2018-07-11T08:27:54.556Z,15.8
2018-07-11T08:28:55.233Z,15.8
2018-07-11T08:29:55.916Z,15.8
2018-07-11T08:30:56.601Z,15.9
2018-07-11T08:31:57.286Z,15.8
2018-07-11T08:32:57.967Z,15.9
2018-07-11T08:33:58.894Z,15.8
2018-07-11T08:34:59.679Z,15.8
2018-07-11T08:36:00.312Z,15.8
2018-07-11T08:37:00.998Z,15.9
2018-07-11T08:38:01.691Z,15.8
2018-07-11T08:39:02.376Z,15.9
2018-07-11T08:40:03.400Z,15.9
2018-07-11T08:41:04.330Z,15.9
2018-07-11T08:42:05.049Z,15.9
2018-07-11T08:43:05.699Z,15.8
2018-07-11T08:44:06.376Z,15.8
2018-07-11T08:45:07.106Z,15.8
2018-07-11T08:46:07.788Z,15.8
2018-07-11T08:47:08.469Z,15.7
2018-07-11T08:48:09.423Z,15.6
2018-07-11T08:49:10.087Z,15.6
2018-07-11T08:50:10.819Z,15.6
2018-07-11T08:51:11.503Z,15.5
2018-07-11T08:52:12.190Z,15.4
2018-07-11T08:53:12.865Z,15.4
2018-07-11T08:54:13.540Z,15.5
2018-07-11T08:55:14.228Z,15.4
2018-07-11T08:56:14.908Z,15.5
2018-07-11T08:57:15.583Z,15.3
2018-07-11T08:58:16.315Z,15.2
2018-07-11T08:59:17.263Z,15.3
2018-07-11T09:00:17.952Z,15.3
2018-07-11T09:01:18.633Z,15.3
2018-07-11T09:02:19.322Z,15.2
2018-07-11T09:03:20.349Z,15.2
2018-07-11T09:04:21.279Z,15.4
2018-07-11T09:05:21.968Z,15.3
2018-07-11T09:06:22.646Z,15.3
2018-07-11T09:07:23.341Z,15.5
2018-07-11T09:08:24.625Z,15.4
2018-07-11T09:09:25.308Z,15.4
2018-07-11T09:10:26.002Z,15.4
2018-07-11T09:11:26.675Z,15.3
2018-07-11T09:12:27.353Z,15.4
2018-07-11T09:13:28.081Z,15.3
2018-07-11T09:14:28.756Z,15.4
2018-07-11T09:15:29.441Z,15.3
2018-07-11T09:16:30.144Z,15.3
2018-07-11T09:17:30.830Z,15.4
2018-07-11T09:18:31.520Z,15.4
2018-07-11T09:19:32.198Z,15.5
2018-07-11T09:20:32.895Z,15.4
2018-07-11T09:21:33.590Z,15.3
2018-07-11T09:22:34.272Z,15.3
2018-07-11T09:23:34.948Z,15.3
2018-07-11T09:24:35.629Z,15.4
2018-07-11T09:25:36.310Z,15.4
2018-07-11T09:26:37.248Z,15.4
2018-07-11T09:27:37.938Z,15.4
2018-07-11T09:28:38.627Z,15.5
2018-07-11T09:29:39.366Z,15.4
2018-07-11T09:30:40.071Z,15.6
2018-07-11T09:31:40.739Z,15.5
2018-07-11T09:32:41.417Z,15.5
2018-07-11T09:33:42.098Z,15.5
2018-07-11T09:34:42.834Z,15.5
2018-07-11T09:35:43.518Z,15.5
2018-07-11T09:36:44.194Z,15.6
2018-07-11T09:37:44.874Z,15.6
2018-07-11T09:38:45.558Z,15.6
2018-07-11T09:39:46.234Z,15.6
2018-07-11T09:40:46.919Z,15.5
2018-07-11T09:41:47.614Z,15.4
2018-07-11T09:42:48.310Z,15.4
2018-07-11T09:43:48.995Z,15.4
2018-07-11T09:44:49.693Z,15.4
2018-07-11T09:45:50.368Z,15.4
2018-07-11T09:46:51.058Z,15.4
2018-07-11T09:47:51.736Z,15.5
2018-07-11T09:48:52.419Z,15.5
2018-07-11T09:49:53.098Z,15.4
2018-07-11T09:50:53.777Z,15.3
2018-07-11T09:51:54.461Z,15.4
2018-07-11T09:52:55.145Z,15.3
2018-07-11T09:53:55.833Z,15.2
2018-07-11T09:54:56.762Z,15.3
2018-07-11T09:55:57.441Z,15.4
2018-07-11T09:56:58.119Z,15.5
2018-07-11T09:57:58.796Z,15.5
2018-07-11T09:58:59.469Z,15.6
2018-07-11T10:00:00.159Z,15.5
2018-07-11T10:01:00.830Z,15.5
2018-07-11T10:02:01.531Z,15.5
2018-07-11T10:03:02.215Z,15.6
2018-07-11T10:04:02.950Z,15.6
2018-07-11T10:05:03.658Z,15.5
2018-07-11T10:06:04.329Z,15.6
2018-07-11T10:07:05.266Z,15.7
2018-07-11T10:08:05.951Z,15.8
2018-07-11T10:09:06.681Z,15.7
2018-07-11T10:10:07.616Z,15.8
2018-07-11T10:11:08.292Z,15.9
2018-07-11T10:12:08.981Z,15.8
2018-07-11T10:13:09.665Z,15.8
2018-07-11T10:14:10.353Z,15.6
2018-07-11T10:15:11.036Z,15.7
2018-07-11T10:16:11.725Z,15.6
2018-07-11T10:17:12.400Z,15.7
2018-07-11T10:18:13.079Z,15.8
2018-07-11T10:19:13.755Z,15.8
2018-07-11T10:20:14.435Z,15.8
2018-07-11T10:21:15.174Z,15.8
2018-07-11T10:22:15.850Z,15.8
2018-07-11T10:23:16.538Z,15.8
2018-07-11T10:24:17.205Z,15.8
2018-07-11T10:25:17.889Z,15.7
2018-07-11T10:26:18.583Z,15.6
2018-07-11T10:27:19.257Z,15.6
2018-07-11T10:28:19.936Z,15.6
2018-07-11T10:29:20.620Z,15.6
2018-07-11T10:30:21.312Z,15.6
2018-07-11T10:31:21.989Z,15.5
2018-07-11T10:32:22.676Z,15.6
2018-07-11T10:33:23.360Z,15.5
2018-07-11T10:34:24.049Z,15.6
2018-07-11T10:35:24.718Z,15.5
2018-07-11T10:36:25.411Z,15.5
2018-07-11T10:37:26.089Z,15.5
2018-07-11T10:38:26.770Z,15.4
2018-07-11T10:39:27.448Z,15.6
2018-07-11T10:40:28.136Z,15.6
2018-07-11T10:41:28.814Z,15.6
2018-07-11T10:42:29.489Z,15.6
2018-07-11T10:43:30.177Z,15.6
2018-07-11T10:44:30.850Z,15.6
2018-07-11T10:45:31.828Z,15.7
2018-07-11T10:46:32.801Z,15.6
2018-07-11T10:47:33.524Z,15.5
2018-07-11T10:48:34.208Z,15.5
2018-07-11T10:49:34.938Z,15.5
2018-07-11T10:50:35.686Z,15.5
2018-07-11T10:51:36.397Z,15.6
2018-07-11T10:52:37.483Z,15.5
2018-07-11T10:53:38.173Z,15.5
2018-07-11T10:54:38.856Z,15.6
2018-07-11T10:55:39.785Z,15.5
2018-07-11T10:56:40.468Z,15.5
2018-07-11T10:57:41.445Z,15.6
2018-07-11T10:58:42.086Z,15.5
2018-07-11T10:59:42.766Z,15.5
2018-07-11T11:01:05.020Z,15.4
2018-07-11T11:01:44.129Z,15.4
2018-07-11T11:02:44.844Z,15.4
2018-07-11T11:03:45.498Z,15.6
2018-07-11T11:04:46.226Z,15.5
2018-07-11T11:05:46.861Z,15.5
2018-07-11T11:06:47.541Z,15.5
2018-07-11T11:07:48.225Z,15.6
2018-07-11T11:08:48.909Z,15.6
2018-07-11T11:09:49.587Z,15.6
2018-07-11T11:10:50.267Z,15.6
2018-07-11T11:11:50.952Z,15.6
2018-07-11T11:12:51.631Z,15.6
2018-07-11T11:13:52.363Z,15.6
2018-07-11T11:14:53.282Z,15.6
2018-07-11T11:16:55.824Z,15.5
2018-07-11T11:17:56.523Z,15.6
2018-07-11T11:18:57.205Z,15.5
2018-07-11T11:19:57.875Z,15.6
2018-07-11T11:20:58.819Z,15.5
2018-07-11T11:21:59.508Z,15.4
2018-07-11T11:23:00.190Z,15.4
2018-07-11T11:24:00.881Z,15.4
2018-07-11T11:25:01.574Z,15.4
2018-07-11T11:26:02.250Z,15.4
2018-07-11T11:27:02.920Z,15.4
2018-07-11T11:28:03.617Z,15.3
2018-07-11T11:29:04.306Z,15.3
2018-07-11T11:30:04.987Z,15.2
2018-07-11T11:31:05.657Z,15.4
2018-07-11T11:32:06.332Z,15.3
2018-07-11T11:33:07.014Z,15.4
2018-07-11T11:34:07.690Z,15.3
2018-07-11T11:35:08.372Z,15.3
2018-07-11T11:36:09.403Z,15.4
2018-07-11T11:37:10.380Z,15.3
2018-07-11T11:38:11.121Z,15.4
2018-07-11T11:39:11.796Z,15.4
2018-07-11T11:40:12.723Z,15.4
2018-07-11T11:41:13.453Z,15.4
2018-07-11T11:42:14.430Z,15.5
2018-07-11T11:43:14.812Z,15.5
2018-07-11T11:44:15.509Z,15.5
2018-07-11T11:45:16.183Z,15.5
2018-07-11T11:46:16.848Z,15.4
2018-07-11T11:47:17.532Z,15.4
2018-07-11T11:48:18.216Z,15.2
2018-07-11T11:49:18.896Z,15.4
2018-07-11T11:50:19.585Z,15.3
2018-07-11T11:51:20.320Z,15.3
2018-07-11T11:52:21.012Z,15.4
2018-07-11T11:53:21.695Z,15.4
2018-07-11T11:54:22.378Z,15.3
2018-07-11T11:55:23.307Z,15.3
2018-07-11T11:56:23.990Z,15.3
2018-07-11T11:57:24.687Z,15.4
2018-07-11T11:58:25.366Z,15.4
2018-07-11T11:59:26.048Z,15.4
2018-07-11T12:00:26.726Z,15.5
2018-07-11T12:01:27.657Z,15.4
2018-07-11T12:02:28.340Z,15.6
2018-07-11T12:03:29.024Z,15.6
2018-07-11T12:04:29.699Z,15.6
2018-07-11T12:05:30.384Z,15.6
2018-07-11T12:06:31.084Z,15.7
2018-07-11T12:07:31.767Z,15.7
2018-07-11T12:08:32.452Z,15.7
2018-07-11T12:09:33.124Z,15.8
2018-07-11T12:10:33.804Z,15.8
2018-07-11T12:11:34.500Z,15.8
2018-07-11T12:12:35.185Z,15.9
2018-07-11T12:13:35.842Z,15.9
2018-07-11T12:14:36.527Z,15.9
2018-07-11T12:15:37.218Z,16.0
2018-07-11T12:16:37.898Z,16.0
2018-07-11T12:17:38.595Z,16.0
2018-07-11T12:18:39.264Z,15.9
2018-07-11T12:19:40.289Z,16.0
2018-07-11T12:20:40.967Z,16.1
2018-07-11T12:21:41.647Z,16.1
2018-07-11T12:22:42.326Z,16.2
2018-07-11T12:23:43.011Z,16.2
2018-07-11T12:24:43.696Z,16.2
2018-07-11T12:25:44.374Z,16.3
2018-07-11T12:26:45.060Z,16.3
2018-07-11T12:27:45.736Z,16.3
2018-07-11T12:28:46.468Z,16.4
2018-07-11T12:29:47.192Z,16.4
2018-07-11T12:30:47.912Z,16.4
2018-07-11T12:31:48.647Z,16.5
2018-07-11T12:32:49.380Z,16.5
2018-07-11T12:33:50.368Z,16.5
2018-07-11T12:34:51.092Z,16.5
2018-07-11T12:35:51.827Z,16.6
2018-07-11T12:36:52.584Z,16.6
2018-07-11T12:37:53.305Z,16.7
2018-07-11T12:38:54.047Z,16.7
2018-07-11T12:39:54.769Z,16.5
2018-07-11T12:40:55.495Z,16.6
2018-07-11T12:41:56.223Z,16.6
2018-07-11T12:42:56.957Z,16.6
2018-07-11T12:43:57.685Z,16.7
2018-07-11T12:44:58.674Z,16.7
2018-07-11T12:45:59.411Z,16.7
2018-07-11T12:47:00.139Z,16.7
2018-07-11T12:48:00.871Z,16.8
2018-07-11T12:49:01.606Z,16.9
2018-07-11T12:50:02.350Z,16.9
2018-07-11T12:51:03.094Z,16.9
2018-07-11T12:52:04.073Z,16.9
2018-07-11T12:53:04.810Z,17.0
2018-07-11T12:54:05.565Z,17.0
2018-07-11T12:55:06.289Z,17.0
2018-07-11T12:56:07.018Z,17.0
2018-07-11T12:57:07.749Z,17.1
2018-07-11T12:58:08.825Z,17.1
2018-07-11T12:59:09.561Z,17.3
2018-07-11T13:00:10.294Z,17.3
2018-07-11T13:01:11.062Z,17.4
2018-07-11T13:02:11.785Z,17.5
2018-07-11T13:03:12.527Z,17.4
2018-07-11T13:04:13.252Z,17.5
2018-07-11T13:05:14.033Z,17.4
2018-07-11T13:06:14.755Z,17.5
2018-07-11T13:07:15.481Z,17.5
2018-07-11T13:08:16.210Z,17.4
2018-07-11T13:09:16.952Z,17.4
2018-07-11T13:10:17.681Z,17.3
2018-07-11T13:11:18.410Z,17.3
2018-07-11T13:12:19.148Z,17.3
2018-07-11T13:13:19.880Z,17.3
2018-07-11T13:14:20.620Z,17.3
2018-07-11T13:15:21.356Z,17.4
2018-07-11T13:16:22.251Z,17.4
2018-07-11T13:17:22.839Z,17.5
2018-07-11T13:18:23.580Z,17.4
2018-07-11T13:19:24.301Z,17.5
2018-07-11T13:20:25.027Z,17.4
2018-07-11T13:21:25.758Z,17.5
2018-07-11T13:22:26.487Z,17.4
2018-07-11T13:23:27.211Z,17.4
2018-07-11T13:24:27.955Z,17.4
2018-07-11T13:25:28.702Z,17.4
2018-07-11T13:26:29.421Z,17.6
2018-07-11T13:27:30.163Z,17.6
2018-07-11T13:28:30.904Z,17.6
2018-07-11T13:29:31.984Z,17.6